This is the latest recevied weather packets stored in our database for station/object KC3VCX. If no packets are shown the sender has not sent any weather packets the latest 10 day(s).
| Time | Temp. | Humidity | Pressure | Rain* | Wind** | Luminosity | Snow |
|---|---|---|---|---|---|---|---|
| 1776878736 | 21.11° C | 56% | 1017.1 hPa | 0 mm | - | 216 W/m² | - |
| 1776878431 | 21.67° C | 53% | 1017.1 hPa | 0 mm | - | 432 W/m² | - |
| 1776878128 | 20.56° C | 56% | 1017.2 hPa | 0 mm | - | 861 W/m² | - |
| 1776877824 | 20° C | 57% | 1017.4 hPa | 0 mm | - | 232 W/m² | - |
| 1776877521 | 21.11° C | 55% | 1017.4 hPa | 0 mm | - | 207 W/m² | - |
| 1776877218 | 20.56° C | 56% | 1017.3 hPa | 0 mm | - | 873 W/m² | - |
| 1776876915 | 21.67° C | 55% | 1017.6 hPa | 0 mm | - | 900 W/m² | - |
| 1776876613 | 21.11° C | 58% | 1017.6 hPa | 0 mm | - | 913 W/m² | - |
| 1776876309 | 21.67° C | 56% | 1017.6 hPa | 0 mm | - | 856 W/m² | - |
| 1776876006 | 20.56° C | 57% | 1017.8 hPa | 0 mm | - | 885 W/m² | - |
| 1776875702 | 21.67° C | 55% | 1017.6 hPa | 0 mm | - | 863 W/m² | - |
| 1776875399 | 20.56° C | 57% | 1017.7 hPa | 0 mm | - | 825 W/m² | - |
| 1776875095 | 20.56° C | 57% | 1017.8 hPa | 0 mm | - | 832 W/m² | - |
| 1776874792 | 20.56° C | 58% | 1017.4 hPa | 0 mm | - | 832 W/m² | - |
| 1776874488 | 20° C | 57% | 1017.8 hPa | 0 mm | - | 792 W/m² | - |
| 1776874187 | 21.11° C | 55% | 1017.7 hPa | 0 mm | - | 786 W/m² | - |
| 1776873884 | 20° C | 59% | 1017.6 hPa | 0 mm | - | 824 W/m² | - |
| 1776873581 | 21.11° C | 56% | 1017.8 hPa | 0 mm | - | 789 W/m² | - |
| 1776873276 | 21.11° C | 56% | 1017.8 hPa | 0 mm | - | 774 W/m² | - |
| 1776872972 | 18.89° C | 59% | 1017.9 hPa | 0 mm | - | 771 W/m² | - |
| 1776872669 | 19.44° C | 62% | 1017.7 hPa | 0 mm | - | 769 W/m² | - |
* Rain latest hour (hover to see other rain measurements)
** Current wind speed in m/s (hover to see current wind gust speed)